createdAt,value
2023-04-18T00:00:48.904Z,8.73
2023-04-18T00:03:15.723Z,8.95
2023-04-18T00:05:42.858Z,8.45
2023-04-18T00:08:09.566Z,8.85
2023-04-18T00:10:37.544Z,8.05
2023-04-18T00:13:04.300Z,8.65
2023-04-18T00:15:31.049Z,8.60
2023-04-18T00:17:57.671Z,8.45
2023-04-18T00:20:24.290Z,8.25
2023-04-18T00:22:50.883Z,8.65
2023-04-18T00:25:17.510Z,8.60
2023-04-18T00:27:45.496Z,9.23
2023-04-18T00:30:12.900Z,8.48
2023-04-18T00:32:39.586Z,8.23
2023-04-18T00:35:07.016Z,8.15
2023-04-18T00:37:33.691Z,7.75
2023-04-18T00:40:00.306Z,8.27
2023-04-18T00:42:26.982Z,8.18
2023-04-18T00:44:54.935Z,7.95
2023-04-18T00:47:21.588Z,8.35
2023-04-18T00:49:48.436Z,8.25
2023-04-18T00:52:16.347Z,7.95
2023-04-18T00:54:43.937Z,8.55
2023-04-18T00:57:10.914Z,7.68
2023-04-18T00:59:38.525Z,8.00
2023-04-18T01:02:06.674Z,7.10
2023-04-18T01:04:33.544Z,7.00
2023-04-18T01:07:01.285Z,8.23
2023-04-18T01:09:28.086Z,7.28
2023-04-18T01:11:54.726Z,7.10
2023-04-18T01:14:21.446Z,7.47
2023-04-18T01:16:48.281Z,7.20
2023-04-18T01:19:16.351Z,7.13
2023-04-18T01:21:43.222Z,7.50
2023-04-18T01:24:12.884Z,6.63
2023-04-18T01:26:40.016Z,6.65
2023-04-18T01:29:06.930Z,7.47
2023-04-18T01:31:34.565Z,7.30
2023-04-18T01:34:01.265Z,7.05
2023-04-18T01:36:27.929Z,8.05
2023-04-18T01:38:54.617Z,6.97
2023-04-18T01:41:22.645Z,7.32
2023-04-18T01:43:49.212Z,7.05
2023-04-18T01:46:15.916Z,6.82
2023-04-18T01:48:42.617Z,6.90
2023-04-18T01:51:09.256Z,6.60
2023-04-18T01:53:35.907Z,6.68
2023-04-18T01:56:02.501Z,6.95
2023-04-18T01:58:30.501Z,6.80
2023-04-18T02:00:57.171Z,7.13
2023-04-18T02:03:24.528Z,6.88
2023-04-18T02:05:51.559Z,7.32
2023-04-18T02:08:21.442Z,7.15
2023-04-18T02:10:48.103Z,6.75
2023-04-18T02:13:14.773Z,6.75
2023-04-18T02:15:43.845Z,7.00
2023-04-18T02:18:10.579Z,7.07
2023-04-18T02:20:37.374Z,5.93
2023-04-18T02:23:05.178Z,6.80
2023-04-18T02:25:31.774Z,6.50
2023-04-18T02:27:58.412Z,6.43
2023-04-18T02:30:25.586Z,6.50
2023-04-18T02:32:54.468Z,6.22
2023-04-18T02:35:21.268Z,6.18
2023-04-18T02:37:47.926Z,6.03
2023-04-18T02:40:14.947Z,6.85
2023-04-18T02:42:41.633Z,6.13
2023-04-18T02:45:08.986Z,7.05
2023-04-18T02:47:43.878Z,6.35
2023-04-18T02:50:19.608Z,6.28
2023-04-18T02:52:46.257Z,5.85
2023-04-18T02:55:12.903Z,6.78
2023-04-18T02:57:39.517Z,6.43
2023-04-18T03:00:07.468Z,6.60
2023-04-18T03:02:34.579Z,6.07
2023-04-18T03:05:01.385Z,6.65
2023-04-18T03:07:29.397Z,6.95
2023-04-18T03:09:55.996Z,6.18
2023-04-18T03:12:22.666Z,6.43
2023-04-18T03:14:49.238Z,6.20
2023-04-18T03:17:16.087Z,6.10
2023-04-18T03:19:42.768Z,7.18
2023-04-18T03:22:09.344Z,6.15
2023-04-18T03:24:37.447Z,6.35
2023-04-18T03:27:04.089Z,5.97
2023-04-18T03:29:30.816Z,5.88
2023-04-18T03:31:57.395Z,6.38
2023-04-18T03:34:24.083Z,6.00
2023-04-18T03:36:50.718Z,6.15
2023-04-18T03:39:17.301Z,5.88
2023-04-18T03:41:45.307Z,5.80
2023-04-18T03:44:12.127Z,5.55
2023-04-18T03:46:39.019Z,6.57
2023-04-18T03:49:05.762Z,6.43
2023-04-18T03:51:33.640Z,6.25
2023-04-18T03:54:00.278Z,5.63
2023-04-18T03:56:26.989Z,5.97
2023-04-18T03:58:55.244Z,6.32
2023-04-18T04:01:21.850Z,6.43
2023-04-18T04:03:48.667Z,5.88
2023-04-18T04:06:15.418Z,5.55
2023-04-18T04:08:42.044Z,5.72
2023-04-18T04:11:08.858Z,5.28
2023-04-18T04:13:35.497Z,5.68
2023-04-18T04:16:04.792Z,5.75
2023-04-18T04:18:31.477Z,6.07
2023-04-18T04:20:59.301Z,5.63
2023-04-18T04:23:26.297Z,5.80
2023-04-18T04:25:53.272Z,5.90
2023-04-18T04:28:19.928Z,5.72
2023-04-18T04:30:46.468Z,6.07
2023-04-18T04:33:14.427Z,6.15
2023-04-18T04:35:40.988Z,5.88
2023-04-18T04:38:07.583Z,6.28
2023-04-18T04:40:34.141Z,5.80
2023-04-18T04:43:00.762Z,5.63
2023-04-18T04:45:27.395Z,5.93
2023-04-18T04:47:54.065Z,5.40
2023-04-18T04:50:22.136Z,6.05
2023-04-18T04:52:48.731Z,7.35
2023-04-18T04:55:15.407Z,6.78
2023-04-18T04:57:42.024Z,6.13
2023-04-18T05:00:09.831Z,4.78
2023-04-18T05:02:36.678Z,5.57
2023-04-18T05:05:03.737Z,5.47
2023-04-18T05:07:32.065Z,5.65
2023-04-18T05:09:58.744Z,5.50
2023-04-18T05:12:25.457Z,5.40
2023-04-18T05:14:52.044Z,5.38
2023-04-18T05:17:18.615Z,5.28
2023-04-18T05:19:45.182Z,5.13
2023-04-18T05:22:11.822Z,4.97
2023-04-18T05:24:39.824Z,5.10
2023-04-18T05:27:06.509Z,5.13
2023-04-18T05:29:33.404Z,4.78
2023-04-18T05:31:59.964Z,4.75
2023-04-18T05:34:26.575Z,4.68
2023-04-18T05:36:53.488Z,4.97
2023-04-18T05:39:20.081Z,4.57
2023-04-18T05:41:48.231Z,4.50
2023-04-18T05:44:14.846Z,4.57
2023-04-18T05:46:41.691Z,4.18
2023-04-18T05:49:08.568Z,3.65
2023-04-18T05:51:35.201Z,4.32
2023-04-18T05:54:01.832Z,3.60
2023-04-18T05:56:29.060Z,3.35
2023-04-18T05:58:57.055Z,3.47
2023-04-18T06:01:23.635Z,4.40
2023-04-18T06:03:50.418Z,3.42
2023-04-18T06:06:17.242Z,3.17
2023-04-18T06:08:43.867Z,3.28
2023-04-18T06:11:10.552Z,3.40
2023-04-18T06:13:37.286Z,3.90
2023-04-18T06:16:05.868Z,3.88
2023-04-18T06:18:32.950Z,3.10
2023-04-18T06:20:59.599Z,3.45
2023-04-18T06:23:26.246Z,3.30
2023-04-18T06:25:52.863Z,3.08
2023-04-18T06:28:19.495Z,3.85
2023-04-18T06:30:46.139Z,3.33
2023-04-18T06:33:14.214Z,3.40
2023-04-18T06:35:41.409Z,3.55
2023-04-18T06:38:07.987Z,3.60
2023-04-18T06:40:34.610Z,3.38
2023-04-18T06:43:01.280Z,2.92
2023-04-18T06:45:29.628Z,3.35
2023-04-18T06:47:56.389Z,4.10
2023-04-18T06:50:24.790Z,3.75
2023-04-18T06:52:51.455Z,3.15
2023-04-18T06:55:18.378Z,3.28
2023-04-18T06:57:45.179Z,3.75
2023-04-18T07:00:12.806Z,3.58
2023-04-18T07:02:40.154Z,4.00
2023-04-18T07:05:07.525Z,3.67
2023-04-18T07:07:35.592Z,3.58
2023-04-18T07:10:02.343Z,3.30
2023-04-18T07:12:29.057Z,4.20
2023-04-18T07:14:55.687Z,3.70
2023-04-18T07:17:22.390Z,4.15
2023-04-18T07:19:49.028Z,3.47
2023-04-18T07:22:15.671Z,4.55
2023-04-18T07:24:43.688Z,4.07
2023-04-18T07:27:10.307Z,4.15
2023-04-18T07:29:37.121Z,4.47
2023-04-18T07:32:04.471Z,4.18
2023-04-18T07:34:31.836Z,4.18
2023-04-18T07:36:58.448Z,5.38
2023-04-18T07:39:25.092Z,3.70
2023-04-18T07:41:53.038Z,4.18
2023-04-18T07:44:19.643Z,4.13
2023-04-18T07:46:46.427Z,4.00
2023-04-18T07:49:13.350Z,5.07
2023-04-18T07:51:40.203Z,4.60
2023-04-18T07:54:06.849Z,4.00
2023-04-18T07:56:33.533Z,4.28
2023-04-18T07:59:01.538Z,4.70
2023-04-18T08:01:28.204Z,4.05
2023-04-18T08:03:55.164Z,4.80
2023-04-18T08:06:21.895Z,5.05
2023-04-18T08:08:48.532Z,3.70
2023-04-18T08:11:15.194Z,4.30
2023-04-18T08:13:41.794Z,4.00
2023-04-18T08:16:09.878Z,4.07
2023-04-18T08:18:36.549Z,4.40
2023-04-18T08:21:03.568Z,4.03
2023-04-18T08:23:30.134Z,4.57
2023-04-18T08:25:56.723Z,4.43
2023-04-18T08:28:23.303Z,4.25
2023-04-18T08:30:49.957Z,4.47
2023-04-18T08:33:18.423Z,4.40
2023-04-18T08:35:45.290Z,3.90
2023-04-18T08:38:11.890Z,4.43
2023-04-18T08:40:38.539Z,3.90
2023-04-18T08:43:07.008Z,4.57
2023-04-18T08:45:33.778Z,5.00
2023-04-18T08:48:00.529Z,4.97
2023-04-18T08:50:28.575Z,4.80
2023-04-18T08:52:55.159Z,6.20
2023-04-18T08:55:21.826Z,4.57
2023-04-18T08:57:48.408Z,4.50
2023-04-18T09:00:17.677Z,4.00
2023-04-18T09:02:44.523Z,4.50
2023-04-18T09:05:13.050Z,4.65
2023-04-18T09:07:41.576Z,4.53
2023-04-18T09:10:09.531Z,4.57
2023-04-18T09:12:42.604Z,4.72
2023-04-18T09:15:10.853Z,4.72
2023-04-18T09:17:39.078Z,4.47
2023-04-18T09:20:07.057Z,4.30
2023-04-18T09:22:45.416Z,4.80
2023-04-18T09:25:24.084Z,4.90
2023-04-18T09:27:50.700Z,5.32
2023-04-18T09:30:30.136Z,5.25
2023-04-18T09:32:58.123Z,6.10
2023-04-18T09:35:25.433Z,5.55
2023-04-18T09:37:53.943Z,5.68
2023-04-18T09:40:21.084Z,4.70
2023-04-18T09:42:47.869Z,5.30
2023-04-18T09:45:14.506Z,5.35
2023-04-18T09:47:41.135Z,5.50
2023-04-18T09:50:09.982Z,5.78
2023-04-18T09:52:38.140Z,6.25
2023-04-18T09:55:07.614Z,5.97
2023-04-18T09:57:36.181Z,5.60
2023-04-18T10:00:07.343Z,5.27
2023-04-18T10:02:44.678Z,5.43
2023-04-18T10:05:13.665Z,4.93
2023-04-18T10:07:43.367Z,5.05
2023-04-18T10:10:11.876Z,4.97
2023-04-18T10:12:38.979Z,5.25
2023-04-18T10:15:07.071Z,5.15
2023-04-18T10:17:46.823Z,5.30
2023-04-18T10:20:25.159Z,5.85
2023-04-18T10:22:52.783Z,5.13
2023-04-18T10:25:48.987Z,6.50
2023-04-18T10:28:15.887Z,6.28
2023-04-18T10:30:56.407Z,4.97
2023-04-18T10:33:32.449Z,6.95
2023-04-18T10:36:01.997Z,5.45
2023-04-18T10:38:29.148Z,5.22
2023-04-18T10:41:19.140Z,5.38
2023-04-18T10:44:11.480Z,5.43
2023-04-18T10:46:39.545Z,5.18
2023-04-18T10:49:16.502Z,5.20
2023-04-18T10:51:43.262Z,5.57
2023-04-18T10:54:12.952Z,5.88
2023-04-18T10:56:52.217Z,4.85
2023-04-18T10:59:21.753Z,5.05
2023-04-18T11:01:53.826Z,4.72
2023-04-18T11:04:20.846Z,4.40
2023-04-18T11:06:48.200Z,4.65
2023-04-18T11:09:14.841Z,5.13
2023-04-18T11:11:43.235Z,4.75
2023-04-18T11:14:10.109Z,4.60
2023-04-18T11:16:37.030Z,5.60
2023-04-18T11:19:18.585Z,5.43
2023-04-18T11:21:45.277Z,4.32
2023-04-18T11:24:12.164Z,4.53
2023-04-18T11:26:39.081Z,4.70
2023-04-18T11:29:07.432Z,4.93
2023-04-18T11:31:34.086Z,5.88
2023-04-18T11:34:02.319Z,6.20
2023-04-18T11:36:29.020Z,5.85
2023-04-18T11:38:56.542Z,5.30
2023-04-18T11:41:23.197Z,5.80
2023-04-18T11:43:49.841Z,5.45
2023-04-18T11:46:17.895Z,6.13
2023-04-18T11:48:44.597Z,5.32
2023-04-18T11:51:33.491Z,5.95
2023-04-18T11:54:00.187Z,5.97
2023-04-18T11:56:26.826Z,5.97
2023-04-18T11:58:53.663Z,5.97
2023-04-18T12:01:22.720Z,6.22
2023-04-18T12:04:03.135Z,6.13
2023-04-18T12:06:48.041Z,5.53
2023-04-18T12:09:14.977Z,6.38
2023-04-18T12:11:41.751Z,5.20
2023-04-18T12:14:19.359Z,5.72
2023-04-18T12:16:48.675Z,5.53
2023-04-18T12:19:15.694Z,5.07
2023-04-18T12:21:55.046Z,5.10
2023-04-18T12:24:22.315Z,5.13
2023-04-18T12:26:49.476Z,4.90
2023-04-18T12:29:16.189Z,4.18
2023-04-18T12:31:42.831Z,3.87
2023-04-18T12:34:11.025Z,4.38
2023-04-18T12:36:37.740Z,4.28
2023-04-18T12:39:04.433Z,4.68
2023-04-18T12:41:31.073Z,4.45
2023-04-18T12:43:57.799Z,4.10
2023-04-18T12:46:24.604Z,3.95
2023-04-18T12:48:51.258Z,3.78
2023-04-18T12:51:19.257Z,4.40
2023-04-18T12:53:45.988Z,3.70
2023-04-18T12:56:12.588Z,3.78
2023-04-18T12:58:39.168Z,3.95
2023-04-18T13:01:05.880Z,3.97
2023-04-18T13:03:32.596Z,4.55
2023-04-18T13:05:59.486Z,4.35
2023-04-18T13:08:27.727Z,3.95
2023-04-18T13:10:54.499Z,3.55
2023-04-18T13:13:21.189Z,4.55
2023-04-18T13:15:47.875Z,3.78
2023-04-18T13:18:14.532Z,5.00
2023-04-18T13:20:41.148Z,4.13
2023-04-18T13:23:07.724Z,3.40
2023-04-18T13:25:35.751Z,3.42
2023-04-18T13:28:02.338Z,3.85
2023-04-18T13:30:28.993Z,3.72
2023-04-18T13:32:55.711Z,4.90
2023-04-18T13:35:22.465Z,4.57
2023-04-18T13:37:49.020Z,4.00
2023-04-18T13:40:15.680Z,4.28
2023-04-18T13:42:43.791Z,4.80
2023-04-18T13:45:11.122Z,4.67
2023-04-18T13:47:37.955Z,4.30
2023-04-18T13:50:05.531Z,4.80
2023-04-18T13:52:32.155Z,5.65
2023-04-18T13:54:58.786Z,4.75
2023-04-18T13:57:25.451Z,4.10
2023-04-18T13:59:53.454Z,4.97
2023-04-18T14:02:20.215Z,5.20
2023-04-18T14:04:46.982Z,5.47
2023-04-18T14:07:13.761Z,5.80
2023-04-18T14:09:40.393Z,5.53
2023-04-18T14:12:07.598Z,4.75
2023-04-18T14:14:34.358Z,5.45
2023-04-18T14:17:02.397Z,5.95
2023-04-18T14:19:29.462Z,5.13
2023-04-18T14:21:56.091Z,5.22
2023-04-18T14:24:22.719Z,5.15
2023-04-18T14:26:49.324Z,5.72
2023-04-18T14:29:16.107Z,4.47
2023-04-18T14:31:42.842Z,4.93
2023-04-18T14:34:10.839Z,6.10
2023-04-18T14:36:37.499Z,5.75
2023-04-18T14:39:04.278Z,6.25
2023-04-18T14:41:30.884Z,5.68
2023-04-18T14:43:57.592Z,5.63
2023-04-18T14:46:24.338Z,6.13
2023-04-18T14:48:51.010Z,5.13
2023-04-18T14:51:19.132Z,6.20
2023-04-18T14:53:45.780Z,6.53
2023-04-18T14:56:12.443Z,7.05
2023-04-18T14:58:38.998Z,6.35
2023-04-18T15:01:05.694Z,6.47
2023-04-18T15:03:32.515Z,7.40
2023-04-18T15:05:59.415Z,6.65
2023-04-18T15:08:27.687Z,5.53
2023-04-18T15:10:54.380Z,7.45
2023-04-18T15:13:20.982Z,7.18
2023-04-18T15:15:54.740Z,6.28
2023-04-18T15:18:21.579Z,6.72
2023-04-18T15:20:48.358Z,7.85
2023-04-18T15:23:15.217Z,8.37
2023-04-18T15:25:44.606Z,9.10
2023-04-18T15:28:11.977Z,9.07
2023-04-18T15:30:39.071Z,8.90
2023-04-18T15:33:05.740Z,8.20
2023-04-18T15:35:32.479Z,7.88
2023-04-18T15:37:59.118Z,8.32
2023-04-18T15:40:25.849Z,9.27
2023-04-18T15:42:53.905Z,8.30
2023-04-18T15:45:20.865Z,8.93
2023-04-18T15:47:47.625Z,7.70
2023-04-18T15:50:14.373Z,8.32
2023-04-18T15:52:41.015Z,9.23
2023-04-18T15:55:10.251Z,8.48
2023-04-18T15:57:37.012Z,8.88
2023-04-18T16:00:06.491Z,8.70
2023-04-18T16:02:33.209Z,8.68
2023-04-18T16:04:59.919Z,8.48
2023-04-18T16:07:26.529Z,9.85
2023-04-18T16:09:53.110Z,9.13
2023-04-18T16:12:19.726Z,8.00
2023-04-18T16:14:46.471Z,9.25
2023-04-18T16:17:14.438Z,8.80
2023-04-18T16:19:41.089Z,9.32
2023-04-18T16:22:07.732Z,8.90
2023-04-18T16:24:34.316Z,9.20
2023-04-18T16:27:00.942Z,8.52
2023-04-18T16:29:27.561Z,10.35
2023-04-18T16:31:54.309Z,9.05
2023-04-18T16:34:22.274Z,7.65
2023-04-18T16:36:51.038Z,8.63
2023-04-18T16:39:18.186Z,8.52
2023-04-18T16:41:44.780Z,8.05
2023-04-18T16:44:11.784Z,8.80
2023-04-18T16:46:38.604Z,8.32
2023-04-18T16:49:05.271Z,7.93
2023-04-18T16:51:33.263Z,7.50
2023-04-18T16:53:59.818Z,7.85
2023-04-18T16:56:26.421Z,8.00
2023-04-18T16:58:53.079Z,7.18
2023-04-18T17:01:19.749Z,7.28
2023-04-18T17:03:46.632Z,7.70
2023-04-18T17:06:13.333Z,8.23
2023-04-18T17:08:41.327Z,7.53
2023-04-18T17:11:08.049Z,8.68
2023-04-18T17:13:34.709Z,7.72
2023-04-18T17:16:01.405Z,7.20
2023-04-18T17:18:28.073Z,7.38
2023-04-18T17:20:54.656Z,6.78
2023-04-18T17:23:21.281Z,7.32
2023-04-18T17:25:49.305Z,6.07
2023-04-18T17:28:16.104Z,6.72
2023-04-18T17:30:42.811Z,6.38
2023-04-18T17:33:10.202Z,6.72
2023-04-18T17:35:37.062Z,6.13
2023-04-18T17:38:03.761Z,8.23
2023-04-18T17:40:30.450Z,6.72
2023-04-18T17:42:58.544Z,7.05
2023-04-18T17:45:25.313Z,6.05
2023-04-18T17:47:52.166Z,6.50
2023-04-18T17:50:18.851Z,6.72
2023-04-18T17:52:45.452Z,6.10
2023-04-18T17:55:12.404Z,6.50
2023-04-18T17:57:39.070Z,5.65
2023-04-18T18:00:08.589Z,6.43
2023-04-18T18:02:35.366Z,6.32
2023-04-18T18:05:02.102Z,6.47
2023-04-18T18:07:28.842Z,5.70
2023-04-18T18:09:55.934Z,5.75
2023-04-18T18:12:22.582Z,6.07
2023-04-18T18:14:49.225Z,6.18
2023-04-18T18:17:17.217Z,6.07
2023-04-18T18:19:43.864Z,6.72
2023-04-18T18:22:10.520Z,8.60
2023-04-18T18:24:37.162Z,5.65
2023-04-18T18:27:03.997Z,6.68
2023-04-18T18:29:30.877Z,6.95
2023-04-18T18:31:57.513Z,6.78
2023-04-18T18:34:25.571Z,5.93
2023-04-18T18:36:52.256Z,7.50
2023-04-18T18:39:18.997Z,7.32
2023-04-18T18:41:45.630Z,6.47
2023-04-18T18:44:12.358Z,6.75
2023-04-18T18:46:39.007Z,6.95
2023-04-18T18:49:05.584Z,7.88
2023-04-18T18:51:33.616Z,6.50
2023-04-18T18:54:00.249Z,5.53
2023-04-18T18:56:26.881Z,7.05
2023-04-18T18:58:54.445Z,6.20
2023-04-18T19:01:21.144Z,7.25
2023-04-18T19:03:48.154Z,7.00
2023-04-18T19:06:14.897Z,6.47
2023-04-18T19:08:42.909Z,8.65
2023-04-18T19:11:09.596Z,6.22
2023-04-18T19:13:36.249Z,6.03
2023-04-18T19:16:02.960Z,6.93
2023-04-18T19:18:29.650Z,6.57
2023-04-18T19:20:56.232Z,6.28
2023-04-18T19:23:22.850Z,6.57
2023-04-18T19:25:51.758Z,5.80
2023-04-18T19:28:18.450Z,6.43
2023-04-18T19:30:45.093Z,6.60
2023-04-18T19:33:12.467Z,6.65
2023-04-18T19:35:39.282Z,6.00
2023-04-18T19:38:05.949Z,5.35
2023-04-18T19:40:32.538Z,5.65
2023-04-18T19:43:00.577Z,6.22
2023-04-18T19:45:27.258Z,5.63
2023-04-18T19:47:53.902Z,6.20
2023-04-18T19:50:20.613Z,6.07
2023-04-18T19:52:47.250Z,5.55
2023-04-18T19:55:14.136Z,6.45
2023-04-18T19:57:41.037Z,5.93
2023-04-18T20:00:11.094Z,6.22
2023-04-18T20:02:37.836Z,6.03
2023-04-18T20:05:06.283Z,6.28
2023-04-18T20:07:33.102Z,5.20
2023-04-18T20:09:59.662Z,5.13
2023-04-18T20:12:26.582Z,5.45
2023-04-18T20:14:55.382Z,5.35
2023-04-18T20:17:23.451Z,5.15
2023-04-18T20:19:50.066Z,4.95
2023-04-18T20:22:17.124Z,5.60
2023-04-18T20:24:43.894Z,5.30
2023-04-18T20:27:10.949Z,5.32
2023-04-18T20:29:37.552Z,5.10
2023-04-18T20:32:04.671Z,6.00
2023-04-18T20:34:32.639Z,5.80
2023-04-18T20:36:59.289Z,5.03
2023-04-18T20:39:25.995Z,4.90
2023-04-18T20:41:52.655Z,4.50
2023-04-18T20:44:19.299Z,4.85
2023-04-18T20:46:45.879Z,4.57
2023-04-18T20:49:12.701Z,4.70
2023-04-18T20:51:41.063Z,5.07
2023-04-18T20:54:07.712Z,4.25
2023-04-18T20:56:36.069Z,4.18
2023-04-18T20:59:02.717Z,4.30
2023-04-18T21:01:29.385Z,4.30
2023-04-18T21:03:56.304Z,4.57
2023-04-18T21:06:23.075Z,4.32
2023-04-18T21:08:51.039Z,4.18
2023-04-18T21:11:17.655Z,3.80
2023-04-18T21:13:44.339Z,4.05
2023-04-18T21:16:11.058Z,4.40
2023-04-18T21:18:37.709Z,3.92
2023-04-18T21:21:04.421Z,3.90
2023-04-18T21:23:31.033Z,4.00
2023-04-18T21:25:58.986Z,3.83
2023-04-18T21:28:25.602Z,3.78
2023-04-18T21:30:52.228Z,3.30
2023-04-18T21:33:18.870Z,3.75
2023-04-18T21:35:45.475Z,3.78
2023-04-18T21:38:12.048Z,3.47
2023-04-18T21:40:38.632Z,3.60
2023-04-18T21:43:06.666Z,3.95
2023-04-18T21:45:33.309Z,3.65
2023-04-18T21:48:00.046Z,3.28
2023-04-18T21:50:26.702Z,3.03
2023-04-18T21:52:53.265Z,3.22
2023-04-18T21:55:20.088Z,3.63
2023-04-18T21:57:46.627Z,3.20
2023-04-18T22:00:15.572Z,3.28
2023-04-18T22:02:42.275Z,3.10
2023-04-18T22:05:09.280Z,3.20
2023-04-18T22:07:43.248Z,4.07
2023-04-18T22:10:13.193Z,3.58
2023-04-18T22:12:39.749Z,3.70
2023-04-18T22:15:07.231Z,3.53
2023-04-18T22:17:35.249Z,3.47
2023-04-18T22:20:02.005Z,3.53
2023-04-18T22:22:28.650Z,3.55
2023-04-18T22:24:55.256Z,3.30
2023-04-18T22:27:21.884Z,4.45
2023-04-18T22:29:48.540Z,3.95
2023-04-18T22:32:15.137Z,3.78
2023-04-18T22:34:43.102Z,4.40
2023-04-18T22:37:09.715Z,4.47
2023-04-18T22:39:36.328Z,4.80
2023-04-18T22:42:03.055Z,3.92
2023-04-18T22:44:29.683Z,4.00
2023-04-18T22:46:57.363Z,5.10
2023-04-18T22:49:23.937Z,4.47
2023-04-18T22:51:51.925Z,4.07
2023-04-18T22:54:18.704Z,5.05
2023-04-18T22:56:45.332Z,4.72
2023-04-18T22:59:11.945Z,5.05
2023-04-18T23:01:38.563Z,4.78
2023-04-18T23:04:05.529Z,4.90
2023-04-18T23:06:32.412Z,4.82
2023-04-18T23:09:00.323Z,5.55
2023-04-18T23:11:26.917Z,5.00
2023-04-18T23:13:53.579Z,5.20
2023-04-18T23:16:20.240Z,5.20
2023-04-18T23:18:46.950Z,4.80
2023-04-18T23:21:13.569Z,5.18
2023-04-18T23:23:40.218Z,5.70
2023-04-18T23:26:13.489Z,5.43
2023-04-18T23:28:40.251Z,5.25
2023-04-18T23:31:06.928Z,5.90
2023-04-18T23:33:33.594Z,5.43
2023-04-18T23:36:00.772Z,5.55
2023-04-18T23:38:27.599Z,5.57
2023-04-18T23:40:54.205Z,5.57
2023-04-18T23:43:22.156Z,5.82
2023-04-18T23:45:48.714Z,5.22
2023-04-18T23:48:15.323Z,5.70
2023-04-18T23:50:44.978Z,5.40
2023-04-18T23:53:11.653Z,5.28
2023-04-18T23:55:38.448Z,5.90
2023-04-18T23:58:05.103Z,5.88
